createdAt,value
2022-12-17T00:00:28.087Z,33.83
2022-12-17T00:04:49.922Z,29.17
2022-12-17T00:09:11.531Z,30.33
2022-12-17T00:13:38.363Z,32.10
2022-12-17T00:17:59.774Z,29.10
2022-12-17T00:22:20.443Z,31.37
2022-12-17T00:26:41.356Z,32.27
2022-12-17T00:31:02.460Z,31.57
2022-12-17T00:35:25.935Z,32.03
2022-12-17T00:39:46.859Z,40.20
2022-12-17T00:44:12.441Z,37.73
2022-12-17T00:48:33.763Z,34.43
2022-12-17T00:52:56.472Z,32.17
2022-12-17T00:57:17.495Z,40.43
2022-12-17T01:01:38.672Z,33.40
2022-12-17T01:05:59.705Z,37.07
2022-12-17T01:10:22.332Z,37.00
2022-12-17T01:14:43.565Z,41.93
2022-12-17T01:19:04.345Z,40.20
2022-12-17T01:23:32.265Z,37.40
2022-12-17T01:27:54.664Z,40.90
2022-12-17T01:32:16.730Z,38.87
2022-12-17T01:36:37.657Z,38.80
2022-12-17T01:40:58.401Z,38.73
2022-12-17T01:45:21.497Z,38.10
2022-12-17T01:49:45.372Z,40.07
2022-12-17T01:54:14.495Z,43.73
2022-12-17T01:58:35.757Z,38.57
2022-12-17T02:02:57.849Z,39.90
2022-12-17T02:07:30.264Z,39.97
2022-12-17T02:11:59.800Z,38.90
2022-12-17T02:16:29.377Z,38.53
2022-12-17T02:20:58.092Z,40.77
2022-12-17T02:25:25.053Z,41.50
2022-12-17T02:29:51.726Z,36.40
2022-12-17T02:34:14.189Z,39.60
2022-12-17T02:38:40.513Z,38.43
2022-12-17T02:43:18.169Z,38.87
2022-12-17T02:47:42.705Z,37.60
2022-12-17T02:52:03.980Z,34.20
2022-12-17T02:56:33.102Z,33.83
2022-12-17T03:00:54.005Z,31.97
2022-12-17T03:05:43.364Z,34.20
2022-12-17T03:09:57.329Z,34.20
2022-12-17T03:14:18.071Z,33.50
2022-12-17T03:18:39.311Z,31.40
2022-12-17T03:23:01.362Z,30.93
2022-12-17T03:27:22.479Z,30.30
2022-12-17T03:31:44.328Z,29.90
2022-12-17T03:36:05.131Z,30.57
2022-12-17T03:40:28.041Z,30.27
2022-12-17T03:44:48.768Z,29.27
2022-12-17T03:49:14.848Z,29.43
2022-12-17T03:53:36.672Z,26.93
2022-12-17T03:57:58.673Z,26.70
2022-12-17T04:02:19.784Z,28.03
2022-12-17T04:06:40.535Z,25.50
2022-12-17T04:11:01.392Z,27.20
2022-12-17T04:15:24.694Z,28.30
2022-12-17T04:19:45.517Z,27.50
2022-12-17T04:24:07.283Z,27.13
2022-12-17T04:28:27.897Z,25.20
2022-12-17T04:32:50.309Z,24.83
2022-12-17T04:37:11.833Z,25.10
2022-12-17T04:41:32.805Z,24.00
2022-12-17T04:45:52.579Z,22.00
2022-12-17T04:50:18.780Z,22.50
2022-12-17T04:54:39.647Z,24.40
2022-12-17T04:59:00.573Z,23.93
2022-12-17T05:03:25.510Z,22.10
2022-12-17T05:07:47.975Z,24.20
2022-12-17T05:12:08.614Z,23.40
2022-12-17T05:16:29.884Z,20.50
2022-12-17T05:20:50.280Z,20.50
2022-12-17T05:25:12.247Z,19.53
2022-12-17T05:29:33.516Z,21.47
2022-12-17T05:33:54.079Z,24.67
2022-12-17T05:38:21.068Z,24.40
2022-12-17T05:42:43.318Z,27.57
2022-12-17T05:51:48.629Z,23.93
2022-12-17T05:56:10.099Z,23.57
2022-12-17T06:00:33.163Z,23.90
2022-12-17T06:04:57.497Z,26.40
2022-12-17T06:09:23.092Z,26.80
2022-12-17T06:13:43.950Z,28.03
2022-12-17T06:18:16.707Z,30.67
2022-12-17T06:22:37.918Z,25.03
2022-12-17T06:26:59.200Z,25.90
2022-12-17T06:31:27.641Z,27.67
2022-12-17T06:35:49.874Z,25.80
2022-12-17T06:40:11.883Z,25.77
2022-12-17T06:44:33.031Z,27.93
2022-12-17T06:48:53.672Z,28.40
2022-12-17T06:53:20.288Z,27.00
2022-12-17T06:57:44.128Z,30.77
2022-12-17T07:02:07.136Z,28.57
2022-12-17T07:06:27.883Z,27.53
2022-12-17T07:10:50.174Z,28.67
2022-12-17T07:15:11.140Z,29.03
2022-12-17T07:19:31.685Z,27.10
2022-12-17T07:23:52.519Z,26.60
2022-12-17T07:28:12.373Z,29.43
2022-12-17T07:32:32.873Z,32.77
2022-12-17T07:36:53.513Z,29.27
2022-12-17T07:41:15.495Z,30.50
2022-12-17T07:45:38.170Z,28.73
2022-12-17T07:49:59.085Z,34.40
2022-12-17T07:54:20.966Z,31.03
2022-12-17T07:58:43.894Z,31.73
2022-12-17T08:03:07.806Z,31.40
2022-12-17T08:07:29.010Z,31.03
2022-12-17T08:11:51.067Z,32.27
2022-12-17T08:16:13.684Z,31.20
2022-12-17T08:20:37.726Z,31.40
2022-12-17T08:24:59.241Z,28.67
2022-12-17T08:29:20.015Z,25.93
2022-12-17T08:33:41.949Z,28.63
2022-12-17T08:38:05.953Z,28.97
2022-12-17T08:42:30.167Z,25.57
2022-12-17T08:47:00.095Z,26.90
2022-12-17T08:51:21.748Z,27.27
2022-12-17T08:55:41.245Z,24.90
2022-12-17T09:00:02.683Z,25.33
2022-12-17T09:04:24.300Z,27.30
2022-12-17T09:08:45.556Z,26.27
2022-12-17T09:13:07.992Z,26.00
2022-12-17T09:17:29.576Z,23.50
2022-12-17T09:21:50.903Z,26.87
2022-12-17T09:26:12.641Z,24.80
2022-12-17T09:30:35.142Z,24.83
2022-12-17T09:34:56.413Z,23.80
2022-12-17T09:39:17.591Z,23.97
2022-12-17T09:43:48.597Z,23.50
2022-12-17T09:48:19.298Z,28.10
2022-12-17T09:52:44.828Z,29.60
2022-12-17T09:57:07.995Z,28.40
2022-12-17T10:01:36.345Z,26.00
2022-12-17T10:06:03.853Z,26.03
2022-12-17T10:10:35.504Z,23.67
2022-12-17T10:14:59.375Z,26.37
2022-12-17T10:19:21.766Z,26.20
2022-12-17T10:23:46.892Z,33.13
2022-12-17T10:28:06.875Z,24.90
2022-12-17T10:32:30.995Z,22.77
2022-12-17T10:36:52.400Z,23.77
2022-12-17T10:41:14.743Z,26.20
2022-12-17T10:45:43.956Z,23.97
2022-12-17T10:50:16.529Z,19.57
2022-12-17T10:54:48.766Z,25.00
2022-12-17T10:59:16.633Z,25.73
2022-12-17T11:03:58.743Z,23.77
2022-12-17T11:08:20.982Z,25.27
2022-12-17T11:12:51.512Z,26.73
2022-12-17T11:17:20.390Z,15.50
2022-12-17T11:21:45.214Z,11.50
2022-12-17T11:26:12.659Z,6.93
2022-12-17T11:30:35.271Z,6.83
2022-12-17T11:35:14.604Z,5.80
2022-12-17T11:39:43.454Z,4.53
2022-12-17T11:44:11.647Z,4.20
2022-12-17T11:48:40.735Z,3.77
2022-12-17T11:53:10.300Z,3.67
2022-12-17T11:57:40.387Z,3.20
2022-12-17T12:02:10.387Z,2.70
2022-12-17T12:06:41.019Z,3.43
2022-12-17T12:11:07.569Z,2.77
2022-12-17T12:15:47.081Z,3.07
2022-12-17T12:20:13.823Z,3.37
2022-12-17T12:24:47.996Z,4.80
2022-12-17T12:29:12.375Z,5.67
2022-12-17T12:33:44.745Z,4.37
2022-12-17T12:38:06.321Z,4.70
2022-12-17T12:42:34.059Z,6.83
2022-12-17T12:47:01.332Z,5.23
2022-12-17T12:51:34.225Z,5.33
2022-12-17T12:55:57.567Z,5.03
2022-12-17T13:00:17.749Z,5.67
2022-12-17T13:04:50.676Z,6.47
2022-12-17T13:09:06.207Z,7.73
2022-12-17T13:13:20.714Z,5.80
2022-12-17T13:17:32.647Z,6.63
2022-12-17T13:21:37.415Z,6.83
2022-12-17T13:25:41.176Z,6.33
2022-12-17T13:29:44.476Z,4.77
2022-12-17T13:33:52.705Z,3.77
2022-12-17T13:38:09.335Z,3.60
2022-12-17T13:42:29.452Z,3.60
2022-12-17T13:46:46.993Z,2.47
2022-12-17T13:50:59.821Z,2.13
2022-12-17T13:55:11.379Z,3.00
2022-12-17T13:59:22.534Z,3.10
2022-12-17T14:03:56.509Z,1.90
2022-12-17T14:07:49.624Z,3.10
2022-12-17T14:12:11.988Z,3.23
2022-12-17T14:16:17.897Z,2.60
2022-12-17T14:20:25.266Z,3.40
2022-12-17T14:24:30.238Z,3.87
2022-12-17T14:28:36.667Z,3.93
2022-12-17T14:32:40.353Z,2.50
2022-12-17T14:36:46.900Z,2.50
2022-12-17T14:40:50.987Z,2.93
2022-12-17T14:44:58.245Z,3.90
2022-12-17T14:49:04.208Z,4.70
2022-12-17T14:53:26.967Z,5.43
2022-12-17T14:57:30.638Z,6.60
2022-12-17T15:01:35.911Z,7.10
2022-12-17T15:05:39.773Z,5.20
2022-12-17T15:09:46.056Z,5.27
2022-12-17T15:13:55.903Z,5.53
2022-12-17T15:18:04.106Z,8.13
2022-12-17T15:22:07.800Z,7.70
2022-12-17T15:26:11.719Z,5.90
2022-12-17T15:30:16.046Z,6.43
2022-12-17T15:34:21.487Z,5.27
2022-12-17T15:38:25.168Z,4.40
2022-12-17T15:42:45.857Z,6.30
2022-12-17T15:46:49.935Z,6.07
2022-12-17T15:50:55.379Z,7.67
2022-12-17T15:54:58.785Z,7.87
2022-12-17T15:59:04.950Z,12.50
2022-12-17T16:03:08.395Z,13.60
2022-12-17T16:07:13.297Z,13.97
2022-12-17T16:11:17.160Z,13.47
2022-12-17T16:15:21.419Z,12.17
2022-12-17T16:19:25.517Z,11.80
2022-12-17T16:23:30.790Z,11.20
2022-12-17T16:27:34.275Z,12.80
2022-12-17T16:31:37.589Z,13.40
2022-12-17T16:35:59.627Z,16.10
2022-12-17T16:40:25.697Z,15.00
2022-12-17T16:44:30.588Z,17.10
2022-12-17T16:48:39.765Z,18.80
2022-12-17T16:52:44.362Z,18.20
2022-12-17T16:56:48.688Z,16.40
2022-12-17T17:00:56.713Z,18.20
2022-12-17T17:05:01.177Z,18.90
2022-12-17T17:09:05.521Z,21.80
2022-12-17T17:13:08.786Z,29.93
2022-12-17T17:17:13.518Z,26.40
2022-12-17T17:21:23.698Z,28.63
2022-12-17T17:25:38.794Z,25.77
2022-12-17T17:29:50.483Z,25.47
2022-12-17T17:33:55.976Z,24.30
2022-12-17T17:37:59.935Z,28.37
2022-12-17T17:42:03.620Z,24.90
2022-12-17T17:46:08.303Z,25.00
2022-12-17T17:50:13.253Z,23.93
2022-12-17T17:54:16.846Z,27.00
2022-12-17T17:58:21.369Z,25.60
2022-12-17T18:02:25.008Z,27.70
2022-12-17T18:06:30.399Z,30.43
2022-12-17T18:10:33.810Z,28.90
2022-12-17T18:14:41.873Z,29.30
2022-12-17T18:18:46.231Z,34.07
2022-12-17T18:22:51.211Z,22.23
2022-12-17T18:27:06.403Z,25.83
2022-12-17T18:36:33.586Z,21.80
2022-12-17T18:40:38.813Z,23.10
2022-12-17T18:44:44.600Z,22.50
2022-12-17T18:48:55.493Z,22.87
2022-12-17T18:53:15.837Z,21.47
2022-12-17T18:57:31.371Z,21.97
2022-12-17T19:01:39.657Z,26.00
2022-12-17T19:05:50.129Z,29.07
2022-12-17T19:10:01.361Z,26.77
2022-12-17T19:14:09.234Z,27.20
2022-12-17T19:18:15.708Z,29.53
2022-12-17T19:22:23.287Z,29.43
2022-12-17T19:26:34.101Z,28.10
2022-12-17T19:31:00.398Z,27.30
2022-12-17T19:35:18.852Z,24.70
2022-12-17T19:39:29.108Z,26.83
2022-12-17T20:10:03.276Z,28.63
2022-12-17T20:14:40.681Z,25.17
2022-12-17T20:18:53.285Z,25.90
2022-12-17T20:22:57.605Z,25.47
2022-12-17T20:27:06.176Z,25.97
2022-12-17T20:31:14.257Z,31.03
2022-12-17T20:35:20.596Z,26.50
2022-12-17T20:39:27.801Z,20.03
2022-12-17T20:43:33.133Z,27.20
2022-12-17T20:47:36.738Z,19.77
2022-12-17T20:51:42.663Z,22.17
2022-12-17T20:55:45.916Z,22.57
2022-12-17T20:59:49.503Z,25.30
2022-12-17T21:03:54.206Z,22.77
2022-12-17T21:08:14.281Z,26.17
2022-12-17T21:12:21.116Z,22.80
2022-12-17T21:16:28.072Z,22.13
2022-12-17T21:20:32.051Z,22.77
2022-12-17T21:24:37.963Z,25.70
2022-12-17T21:28:45.264Z,31.33
2022-12-17T21:32:50.017Z,24.40
2022-12-17T21:36:55.543Z,22.50
2022-12-17T21:41:12.465Z,18.53
2022-12-17T21:45:32.989Z,21.70
2022-12-17T21:49:47.755Z,22.30
2022-12-17T21:53:56.156Z,24.97
2022-12-17T21:58:02.584Z,23.07
2022-12-17T22:02:05.944Z,26.30
2022-12-17T22:06:11.871Z,24.50
2022-12-17T22:10:28.470Z,23.67
2022-12-17T22:14:40.907Z,24.53
2022-12-17T22:18:44.443Z,21.93
2022-12-17T22:22:49.154Z,23.20
2022-12-17T22:27:00.418Z,21.70
2022-12-17T22:31:25.030Z,23.20
2022-12-17T22:37:17.849Z,18.37
2022-12-17T22:44:30.963Z,17.10
2022-12-17T22:44:51.239Z,17.90
2022-12-17T22:48:47.264Z,19.83
2022-12-17T22:52:51.000Z,18.10
2022-12-17T22:57:15.155Z,21.37
2022-12-17T23:01:22.911Z,21.40
2022-12-17T23:05:29.675Z,22.37
2022-12-17T23:13:38.150Z,20.00
2022-12-17T23:17:42.146Z,20.30
2022-12-17T23:21:47.066Z,19.03
2022-12-17T23:25:50.812Z,17.07
2022-12-17T23:29:54.321Z,17.27
2022-12-17T23:33:57.982Z,18.63
2022-12-17T23:38:02.898Z,16.90
2022-12-17T23:42:06.697Z,18.83
2022-12-17T23:46:11.590Z,17.23
2022-12-17T23:50:15.337Z,20.43
2022-12-17T23:54:20.202Z,17.93
2022-12-17T23:58:24.029Z,16.27
